sensor_id;sensor_type;location;lat;lon;timestamp;P1;durP1;ratioP1;P2;durP2;ratioP2
77117;SDS011;66072;50.238;19.228;2023-04-01T00:01:54;5.50;;;2.40;;
77117;SDS011;66072;50.238;19.228;2023-04-01T00:04:22;7.20;;;3.10;;
77117;SDS011;66072;50.238;19.228;2023-04-01T00:06:50;4.80;;;2.50;;
77117;SDS011;66072;50.238;19.228;2023-04-01T00:09:17;7.00;;;3.50;;
77117;SDS011;66072;50.238;19.228;2023-04-01T00:11:45;5.90;;;2.90;;
77117;SDS011;66072;50.238;19.228;2023-04-01T00:14:12;8.90;;;3.90;;
77117;SDS011;66072;50.238;19.228;2023-04-01T00:16:40;5.70;;;2.90;;
77117;SDS011;66072;50.238;19.228;2023-04-01T00:19:08;5.30;;;2.90;;
77117;SDS011;66072;50.238;19.228;2023-04-01T00:21:35;3.90;;;2.40;;
77117;SDS011;66072;50.238;19.228;2023-04-01T00:24:03;5.80;;;2.70;;
77117;SDS011;66072;50.238;19.228;2023-04-01T00:26:31;3.40;;;2.00;;
77117;SDS011;66072;50.238;19.228;2023-04-01T00:28:58;5.70;;;3.10;;
77117;SDS011;66072;50.238;19.228;2023-04-01T00:31:26;6.00;;;3.30;;
77117;SDS011;66072;50.238;19.228;2023-04-01T00:33:54;5.10;;;2.70;;
77117;SDS011;66072;50.238;19.228;2023-04-01T00:36:21;6.10;;;3.10;;
77117;SDS011;66072;50.238;19.228;2023-04-01T00:38:49;3.80;;;2.10;;
77117;SDS011;66072;50.238;19.228;2023-04-01T00:41:18;7.10;;;2.90;;
77117;SDS011;66072;50.238;19.228;2023-04-01T00:43:47;4.10;;;2.80;;
77117;SDS011;66072;50.238;19.228;2023-04-01T00:46:16;6.70;;;3.30;;
77117;SDS011;66072;50.238;19.228;2023-04-01T00:48:48;4.40;;;2.60;;
77117;SDS011;66072;50.238;19.228;2023-04-01T00:51:23;7.30;;;3.30;;
77117;SDS011;66072;50.238;19.228;2023-04-01T00:53:55;4.60;;;2.60;;
77117;SDS011;66072;50.238;19.228;2023-04-01T00:56:30;6.50;;;3.60;;
77117;SDS011;66072;50.238;19.228;2023-04-01T00:59:25;5.80;;;3.00;;
77117;SDS011;66072;50.238;19.228;2023-04-01T01:01:56;7.50;;;3.10;;
77117;SDS011;66072;50.238;19.228;2023-04-01T01:04:28;5.50;;;2.80;;
77117;SDS011;66072;50.238;19.228;2023-04-01T01:12:07;5.50;;;3.00;;
77117;SDS011;66072;50.238;19.228;2023-04-01T01:15:08;6.50;;;2.90;;
77117;SDS011;66072;50.238;19.228;2023-04-01T01:21:03;4.90;;;2.80;;
77117;SDS011;66072;50.238;19.228;2023-04-01T01:32:17;5.50;;;2.90;;
77117;SDS011;66072;50.238;19.228;2023-04-01T01:38:09;4.40;;;2.80;;
77117;SDS011;66072;50.238;19.228;2023-04-01T01:43:11;6.60;;;3.40;;
77117;SDS011;66072;50.238;19.228;2023-04-01T01:45:46;6.70;;;3.20;;
77117;SDS011;66072;50.238;19.228;2023-04-01T01:48:18;5.70;;;3.20;;
77117;SDS011;66072;50.238;19.228;2023-04-01T01:50:46;8.90;;;4.30;;
77117;SDS011;66072;50.238;19.228;2023-04-01T01:53:15;5.30;;;2.50;;
77117;SDS011;66072;50.238;19.228;2023-04-01T01:55:44;4.70;;;2.60;;
77117;SDS011;66072;50.238;19.228;2023-04-01T02:00:53;8.70;;;4.40;;
77117;SDS011;66072;50.238;19.228;2023-04-01T02:03:23;9.20;;;4.30;;
77117;SDS011;66072;50.238;19.228;2023-04-01T02:05:55;7.90;;;4.20;;
77117;SDS011;66072;50.238;19.228;2023-04-01T02:08:28;6.20;;;3.70;;
77117;SDS011;66072;50.238;19.228;2023-04-01T02:11:02;7.10;;;4.40;;
77117;SDS011;66072;50.238;19.228;2023-04-01T02:16:24;8.00;;;4.90;;
77117;SDS011;66072;50.238;19.228;2023-04-01T02:18:56;9.50;;;4.70;;
77117;SDS011;66072;50.238;19.228;2023-04-01T02:21:27;8.40;;;4.10;;
77117;SDS011;66072;50.238;19.228;2023-04-01T02:23:58;7.70;;;3.80;;
77117;SDS011;66072;50.238;19.228;2023-04-01T02:26:29;8.10;;;5.20;;
77117;SDS011;66072;50.238;19.228;2023-04-01T02:28:57;10.50;;;6.10;;
77117;SDS011;66072;50.238;19.228;2023-04-01T02:31:28;9.70;;;5.20;;
77117;SDS011;66072;50.238;19.228;2023-04-01T02:33:56;7.00;;;4.00;;
77117;SDS011;66072;50.238;19.228;2023-04-01T02:36:24;7.30;;;4.10;;
77117;SDS011;66072;50.238;19.228;2023-04-01T02:38:52;6.80;;;3.90;;
77117;SDS011;66072;50.238;19.228;2023-04-01T02:41:23;11.20;;;4.60;;
77117;SDS011;66072;50.238;19.228;2023-04-01T02:43:50;7.10;;;4.10;;
77117;SDS011;66072;50.238;19.228;2023-04-01T02:46:18;10.20;;;5.20;;
77117;SDS011;66072;50.238;19.228;2023-04-01T02:48:45;9.10;;;4.60;;
77117;SDS011;66072;50.238;19.228;2023-04-01T02:51:13;8.10;;;4.90;;
77117;SDS011;66072;50.238;19.228;2023-04-01T02:53:43;10.00;;;4.50;;
77117;SDS011;66072;50.238;19.228;2023-04-01T02:56:11;11.00;;;4.70;;
77117;SDS011;66072;50.238;19.228;2023-04-01T02:58:38;8.50;;;4.60;;
77117;SDS011;66072;50.238;19.228;2023-04-01T03:01:06;6.80;;;4.10;;
77117;SDS011;66072;50.238;19.228;2023-04-01T03:03:34;5.80;;;3.90;;
77117;SDS011;66072;50.238;19.228;2023-04-01T03:06:05;7.20;;;3.60;;
77117;SDS011;66072;50.238;19.228;2023-04-01T03:08:34;8.30;;;4.00;;
77117;SDS011;66072;50.238;19.228;2023-04-01T03:11:02;8.90;;;4.80;;
77117;SDS011;66072;50.238;19.228;2023-04-01T03:13:31;6.30;;;3.40;;
77117;SDS011;66072;50.238;19.228;2023-04-01T03:15:59;9.20;;;5.40;;
77117;SDS011;66072;50.238;19.228;2023-04-01T03:18:28;7.50;;;5.00;;
77117;SDS011;66072;50.238;19.228;2023-04-01T03:20:55;5.30;;;3.80;;
77117;SDS011;66072;50.238;19.228;2023-04-01T03:23:23;8.00;;;4.20;;
77117;SDS011;66072;50.238;19.228;2023-04-01T03:25:51;8.20;;;3.90;;
77117;SDS011;66072;50.238;19.228;2023-04-01T03:28:18;7.20;;;3.90;;
77117;SDS011;66072;50.238;19.228;2023-04-01T03:30:46;6.30;;;3.00;;
77117;SDS011;66072;50.238;19.228;2023-04-01T03:33:13;6.70;;;3.90;;
77117;SDS011;66072;50.238;19.228;2023-04-01T03:35:41;5.70;;;3.50;;
77117;SDS011;66072;50.238;19.228;2023-04-01T03:38:08;9.00;;;5.10;;
77117;SDS011;66072;50.238;19.228;2023-04-01T03:40:36;7.00;;;3.50;;
77117;SDS011;66072;50.238;19.228;2023-04-01T03:43:04;6.60;;;4.40;;
77117;SDS011;66072;50.238;19.228;2023-04-01T03:45:31;9.00;;;4.30;;
77117;SDS011;66072;50.238;19.228;2023-04-01T03:48:00;8.30;;;5.20;;
77117;SDS011;66072;50.238;19.228;2023-04-01T03:50:27;8.50;;;4.60;;
77117;SDS011;66072;50.238;19.228;2023-04-01T03:52:57;7.30;;;4.30;;
77117;SDS011;66072;50.238;19.228;2023-04-01T03:55:25;7.10;;;4.20;;
77117;SDS011;66072;50.238;19.228;2023-04-01T03:57:52;6.90;;;4.50;;
77117;SDS011;66072;50.238;19.228;2023-04-01T04:00:20;10.20;;;4.90;;
77117;SDS011;66072;50.238;19.228;2023-04-01T04:02:48;6.40;;;4.30;;
77117;SDS011;66072;50.238;19.228;2023-04-01T04:05:15;7.70;;;4.80;;
77117;SDS011;66072;50.238;19.228;2023-04-01T04:07:43;8.60;;;4.00;;
77117;SDS011;66072;50.238;19.228;2023-04-01T04:10:10;7.40;;;3.80;;
77117;SDS011;66072;50.238;19.228;2023-04-01T04:12:38;6.60;;;3.60;;
77117;SDS011;66072;50.238;19.228;2023-04-01T04:15:06;7.90;;;4.70;;
77117;SDS011;66072;50.238;19.228;2023-04-01T04:17:35;7.50;;;4.40;;
77117;SDS011;66072;50.238;19.228;2023-04-01T04:20:02;8.20;;;5.20;;
77117;SDS011;66072;50.238;19.228;2023-04-01T04:22:31;5.90;;;3.10;;
77117;SDS011;66072;50.238;19.228;2023-04-01T04:24:58;6.20;;;4.00;;
77117;SDS011;66072;50.238;19.228;2023-04-01T04:27:26;6.20;;;3.00;;
77117;SDS011;66072;50.238;19.228;2023-04-01T04:29:53;8.10;;;5.20;;
77117;SDS011;66072;50.238;19.228;2023-04-01T04:32:21;8.40;;;4.90;;
77117;SDS011;66072;50.238;19.228;2023-04-01T04:34:49;10.30;;;4.70;;
77117;SDS011;66072;50.238;19.228;2023-04-01T04:37:16;8.20;;;4.30;;
77117;SDS011;66072;50.238;19.228;2023-04-01T04:39:44;10.90;;;5.30;;
77117;SDS011;66072;50.238;19.228;2023-04-01T04:42:11;12.50;;;5.20;;
77117;SDS011;66072;50.238;19.228;2023-04-01T04:44:39;7.40;;;4.50;;
77117;SDS011;66072;50.238;19.228;2023-04-01T04:47:06;8.00;;;4.30;;
77117;SDS011;66072;50.238;19.228;2023-04-01T04:49:34;6.20;;;4.40;;
77117;SDS011;66072;50.238;19.228;2023-04-01T04:52:02;10.60;;;4.70;;
77117;SDS011;66072;50.238;19.228;2023-04-01T04:54:29;6.40;;;4.30;;
77117;SDS011;66072;50.238;19.228;2023-04-01T04:56:57;8.70;;;4.70;;
77117;SDS011;66072;50.238;19.228;2023-04-01T04:59:25;12.00;;;5.10;;
77117;SDS011;66072;50.238;19.228;2023-04-01T05:01:52;6.10;;;2.70;;
77117;SDS011;66072;50.238;19.228;2023-04-01T05:04:20;7.00;;;3.70;;
77117;SDS011;66072;50.238;19.228;2023-04-01T05:06:47;9.50;;;3.80;;
77117;SDS011;66072;50.238;19.228;2023-04-01T05:09:15;11.30;;;5.70;;
77117;SDS011;66072;50.238;19.228;2023-04-01T05:11:43;10.00;;;5.90;;
77117;SDS011;66072;50.238;19.228;2023-04-01T05:14:14;10.20;;;6.30;;
77117;SDS011;66072;50.238;19.228;2023-04-01T05:16:43;7.00;;;4.10;;
77117;SDS011;66072;50.238;19.228;2023-04-01T05:19:10;8.30;;;4.70;;
77117;SDS011;66072;50.238;19.228;2023-04-01T05:21:38;8.10;;;4.00;;
77117;SDS011;66072;50.238;19.228;2023-04-01T05:24:09;8.80;;;4.70;;
77117;SDS011;66072;50.238;19.228;2023-04-01T05:26:36;5.60;;;3.30;;
77117;SDS011;66072;50.238;19.228;2023-04-01T05:29:04;9.40;;;4.80;;
77117;SDS011;66072;50.238;19.228;2023-04-01T05:31:32;9.10;;;5.10;;
77117;SDS011;66072;50.238;19.228;2023-04-01T05:33:59;7.50;;;4.80;;
77117;SDS011;66072;50.238;19.228;2023-04-01T05:36:27;7.80;;;3.60;;
77117;SDS011;66072;50.238;19.228;2023-04-01T05:38:55;6.20;;;3.40;;
77117;SDS011;66072;50.238;19.228;2023-04-01T05:41:23;11.30;;;5.80;;
77117;SDS011;66072;50.238;19.228;2023-04-01T05:43:50;7.20;;;4.30;;
77117;SDS011;66072;50.238;19.228;2023-04-01T05:46:18;11.40;;;4.60;;
77117;SDS011;66072;50.238;19.228;2023-04-01T05:48:45;8.10;;;4.90;;
77117;SDS011;66072;50.238;19.228;2023-04-01T05:51:13;9.20;;;4.70;;
77117;SDS011;66072;50.238;19.228;2023-04-01T05:53:42;6.90;;;4.60;;
77117;SDS011;66072;50.238;19.228;2023-04-01T05:56:10;6.30;;;4.00;;
77117;SDS011;66072;50.238;19.228;2023-04-01T05:58:37;7.70;;;4.10;;
77117;SDS011;66072;50.238;19.228;2023-04-01T06:01:07;7.10;;;3.10;;
77117;SDS011;66072;50.238;19.228;2023-04-01T06:03:42;6.90;;;3.50;;
77117;SDS011;66072;50.238;19.228;2023-04-01T06:06:13;7.80;;;4.10;;
77117;SDS011;66072;50.238;19.228;2023-04-01T06:08:43;6.80;;;4.30;;
77117;SDS011;66072;50.238;19.228;2023-04-01T06:19:40;9.70;;;4.80;;
77117;SDS011;66072;50.238;19.228;2023-04-01T06:25:54;6.10;;;3.40;;
77117;SDS011;66072;50.238;19.228;2023-04-01T06:45:41;6.20;;;3.50;;
77117;SDS011;66072;50.238;19.228;2023-04-01T06:56:40;9.70;;;4.30;;
77117;SDS011;66072;50.238;19.228;2023-04-01T06:59:10;6.50;;;4.10;;
77117;SDS011;66072;50.238;19.228;2023-04-01T07:01:52;6.90;;;3.20;;
77117;SDS011;66072;50.238;19.228;2023-04-01T07:07:00;7.10;;;3.70;;
77117;SDS011;66072;50.238;19.228;2023-04-01T07:09:34;7.70;;;3.70;;
77117;SDS011;66072;50.238;19.228;2023-04-01T07:12:09;6.90;;;3.20;;
77117;SDS011;66072;50.238;19.228;2023-04-01T07:14:42;7.70;;;4.00;;
77117;SDS011;66072;50.238;19.228;2023-04-01T07:17:16;6.60;;;3.80;;
77117;SDS011;66072;50.238;19.228;2023-04-01T07:22:45;8.50;;;4.10;;
77117;SDS011;66072;50.238;19.228;2023-04-01T07:28:04;6.60;;;3.30;;
77117;SDS011;66072;50.238;19.228;2023-04-01T07:30:39;6.50;;;3.30;;
77117;SDS011;66072;50.238;19.228;2023-04-01T07:39:08;6.50;;;2.70;;
77117;SDS011;66072;50.238;19.228;2023-04-01T07:41:57;5.00;;;2.70;;
77117;SDS011;66072;50.238;19.228;2023-04-01T07:53:27;3.50;;;2.10;;
77117;SDS011;66072;50.238;19.228;2023-04-01T07:56:08;4.30;;;2.10;;
77117;SDS011;66072;50.238;19.228;2023-04-01T07:59:03;5.40;;;2.30;;
77117;SDS011;66072;50.238;19.228;2023-04-01T08:07:05;4.20;;;2.70;;
77117;SDS011;66072;50.238;19.228;2023-04-01T08:20:53;5.30;;;2.90;;
77117;SDS011;66072;50.238;19.228;2023-04-01T08:23:27;4.60;;;2.80;;
77117;SDS011;66072;50.238;19.228;2023-04-01T08:26:18;5.90;;;3.10;;
77117;SDS011;66072;50.238;19.228;2023-04-01T08:29:06;3.90;;;2.50;;
77117;SDS011;66072;50.238;19.228;2023-04-01T08:31:45;4.80;;;2.50;;
77117;SDS011;66072;50.238;19.228;2023-04-01T08:34:32;5.90;;;3.00;;
77117;SDS011;66072;50.238;19.228;2023-04-01T08:39:51;4.20;;;2.20;;
77117;SDS011;66072;50.238;19.228;2023-04-01T08:45:18;4.10;;;2.70;;
77117;SDS011;66072;50.238;19.228;2023-04-01T08:48:01;6.20;;;2.70;;
77117;SDS011;66072;50.238;19.228;2023-04-01T08:53:38;7.10;;;3.30;;
77117;SDS011;66072;50.238;19.228;2023-04-01T08:56:17;4.80;;;3.00;;
77117;SDS011;66072;50.238;19.228;2023-04-01T09:01:58;5.20;;;2.90;;
77117;SDS011;66072;50.238;19.228;2023-04-01T09:07:55;6.10;;;3.10;;
77117;SDS011;66072;50.238;19.228;2023-04-01T09:10:47;7.60;;;2.90;;
77117;SDS011;66072;50.238;19.228;2023-04-01T09:13:37;6.50;;;2.90;;
77117;SDS011;66072;50.238;19.228;2023-04-01T09:36:04;4.80;;;2.90;;
77117;SDS011;66072;50.238;19.228;2023-04-01T09:44:09;4.50;;;2.80;;
77117;SDS011;66072;50.238;19.228;2023-04-01T09:58:22;4.50;;;2.60;;
77117;SDS011;66072;50.238;19.228;2023-04-01T10:10:03;3.00;;;2.10;;
77117;SDS011;66072;50.238;19.228;2023-04-01T10:24:34;3.20;;;1.70;;
77117;SDS011;66072;50.238;19.228;2023-04-01T10:27:29;3.00;;;1.60;;
77117;SDS011;66072;50.238;19.228;2023-04-01T10:55:37;20.10;;;3.80;;
77117;SDS011;66072;50.238;19.228;2023-04-01T11:06:35;24.90;;;5.10;;
77117;SDS011;66072;50.238;19.228;2023-04-01T11:17:47;5.40;;;2.90;;
77117;SDS011;66072;50.238;19.228;2023-04-01T11:20:32;5.00;;;2.90;;
77117;SDS011;66072;50.238;19.228;2023-04-01T11:29:37;9.10;;;3.50;;
77117;SDS011;66072;50.238;19.228;2023-04-01T11:44:12;3.10;;;1.90;;
77117;SDS011;66072;50.238;19.228;2023-04-01T11:58:28;3.10;;;1.40;;
77117;SDS011;66072;50.238;19.228;2023-04-01T12:07:55;2.60;;;1.40;;
77117;SDS011;66072;50.238;19.228;2023-04-01T12:10:26;3.00;;;1.40;;
77117;SDS011;66072;50.238;19.228;2023-04-01T12:18:42;3.20;;;1.80;;
77117;SDS011;66072;50.238;19.228;2023-04-01T12:21:19;3.80;;;2.00;;
77117;SDS011;66072;50.238;19.228;2023-04-01T12:26:55;3.30;;;2.00;;
77117;SDS011;66072;50.238;19.228;2023-04-01T12:48:32;4.60;;;2.30;;
77117;SDS011;66072;50.238;19.228;2023-04-01T13:11:50;5.30;;;2.60;;
77117;SDS011;66072;50.238;19.228;2023-04-01T13:25:20;6.20;;;2.00;;
77117;SDS011;66072;50.238;19.228;2023-04-01T13:28:09;6.80;;;3.00;;
77117;SDS011;66072;50.238;19.228;2023-04-01T13:30:49;7.90;;;4.20;;
77117;SDS011;66072;50.238;19.228;2023-04-01T13:39:26;5.80;;;3.00;;
77117;SDS011;66072;50.238;19.228;2023-04-01T14:20:39;5.20;;;1.90;;
77117;SDS011;66072;50.238;19.228;2023-04-01T14:31:34;3.80;;;2.00;;
77117;SDS011;66072;50.238;19.228;2023-04-01T14:37:21;4.80;;;3.00;;
77117;SDS011;66072;50.238;19.228;2023-04-01T14:40:05;6.20;;;3.20;;
77117;SDS011;66072;50.238;19.228;2023-04-01T14:48:56;10.20;;;5.90;;
77117;SDS011;66072;50.238;19.228;2023-04-01T14:51:39;6.00;;;3.60;;
77117;SDS011;66072;50.238;19.228;2023-04-01T14:56:39;5.80;;;3.00;;
77117;SDS011;66072;50.238;19.228;2023-04-01T14:59:13;5.70;;;3.20;;
77117;SDS011;66072;50.238;19.228;2023-04-01T15:18:49;12.80;;;4.60;;
77117;SDS011;66072;50.238;19.228;2023-04-01T15:24:07;6.90;;;4.40;;
77117;SDS011;66072;50.238;19.228;2023-04-01T15:26:45;5.20;;;3.40;;
77117;SDS011;66072;50.238;19.228;2023-04-01T15:35:00;7.30;;;5.00;;
77117;SDS011;66072;50.238;19.228;2023-04-01T15:55:20;11.50;;;8.00;;
77117;SDS011;66072;50.238;19.228;2023-04-01T15:58:15;10.20;;;6.60;;
77117;SDS011;66072;50.238;19.228;2023-04-01T16:01:13;9.40;;;6.80;;
77117;SDS011;66072;50.238;19.228;2023-04-01T16:12:19;13.00;;;7.20;;
77117;SDS011;66072;50.238;19.228;2023-04-01T16:20:43;14.60;;;7.90;;
77117;SDS011;66072;50.238;19.228;2023-04-01T16:23:22;15.90;;;8.60;;
77117;SDS011;66072;50.238;19.228;2023-04-01T16:26:15;14.90;;;9.60;;
77117;SDS011;66072;50.238;19.228;2023-04-01T16:34:01;12.20;;;6.70;;
77117;SDS011;66072;50.238;19.228;2023-04-01T16:36:35;9.50;;;5.60;;
77117;SDS011;66072;50.238;19.228;2023-04-01T16:47:56;14.90;;;7.70;;
77117;SDS011;66072;50.238;19.228;2023-04-01T16:56:22;16.70;;;7.60;;
77117;SDS011;66072;50.238;19.228;2023-04-01T16:59:02;10.40;;;6.50;;
77117;SDS011;66072;50.238;19.228;2023-04-01T17:04:31;10.90;;;5.60;;
77117;SDS011;66072;50.238;19.228;2023-04-01T17:15:21;17.90;;;9.10;;
77117;SDS011;66072;50.238;19.228;2023-04-01T17:18:08;19.20;;;11.40;;
77117;SDS011;66072;50.238;19.228;2023-04-01T17:20:54;16.10;;;10.40;;
77117;SDS011;66072;50.238;19.228;2023-04-01T17:23:36;28.20;;;14.30;;
77117;SDS011;66072;50.238;19.228;2023-04-01T17:26:46;17.70;;;9.60;;
77117;SDS011;66072;50.238;19.228;2023-04-01T17:32:09;19.50;;;10.80;;
77117;SDS011;66072;50.238;19.228;2023-04-01T17:42:50;19.20;;;11.10;;
77117;SDS011;66072;50.238;19.228;2023-04-01T17:45:26;24.30;;;13.00;;
77117;SDS011;66072;50.238;19.228;2023-04-01T17:51:14;21.40;;;12.70;;
77117;SDS011;66072;50.238;19.228;2023-04-01T17:53:55;18.40;;;9.70;;
77117;SDS011;66072;50.238;19.228;2023-04-01T17:56:28;17.90;;;10.80;;
77117;SDS011;66072;50.238;19.228;2023-04-01T17:59:29;19.70;;;12.30;;
77117;SDS011;66072;50.238;19.228;2023-04-01T18:02:28;22.70;;;13.80;;
77117;SDS011;66072;50.238;19.228;2023-04-01T18:16:30;22.30;;;14.30;;
77117;SDS011;66072;50.238;19.228;2023-04-01T18:19:22;28.50;;;17.70;;
77117;SDS011;66072;50.238;19.228;2023-04-01T18:22:08;26.20;;;16.10;;
77117;SDS011;66072;50.238;19.228;2023-04-01T18:24:45;20.00;;;12.50;;
77117;SDS011;66072;50.238;19.228;2023-04-01T18:27:22;26.90;;;16.60;;
77117;SDS011;66072;50.238;19.228;2023-04-01T18:30:01;21.80;;;13.40;;
77117;SDS011;66072;50.238;19.228;2023-04-01T18:32:59;25.50;;;15.80;;
77117;SDS011;66072;50.238;19.228;2023-04-01T18:38:13;17.20;;;10.80;;
77117;SDS011;66072;50.238;19.228;2023-04-01T18:40:51;16.80;;;9.70;;
77117;SDS011;66072;50.238;19.228;2023-04-01T18:46:49;16.80;;;11.00;;
77117;SDS011;66072;50.238;19.228;2023-04-01T18:51:58;15.80;;;8.60;;
77117;SDS011;66072;50.238;19.228;2023-04-01T18:55:15;17.20;;;10.70;;
77117;SDS011;66072;50.238;19.228;2023-04-01T18:57:46;15.10;;;9.30;;
77117;SDS011;66072;50.238;19.228;2023-04-01T19:00:21;12.50;;;8.40;;
77117;SDS011;66072;50.238;19.228;2023-04-01T19:05:53;10.10;;;6.60;;
77117;SDS011;66072;50.238;19.228;2023-04-01T19:08:30;8.70;;;4.80;;
77117;SDS011;66072;50.238;19.228;2023-04-01T19:11:07;10.00;;;5.70;;
77117;SDS011;66072;50.238;19.228;2023-04-01T19:13:46;8.50;;;5.00;;
77117;SDS011;66072;50.238;19.228;2023-04-01T19:22:21;7.80;;;4.20;;
77117;SDS011;66072;50.238;19.228;2023-04-01T19:25:00;8.20;;;4.90;;
77117;SDS011;66072;50.238;19.228;2023-04-01T19:27:51;6.80;;;4.40;;
77117;SDS011;66072;50.238;19.228;2023-04-01T19:30:40;7.40;;;4.00;;
77117;SDS011;66072;50.238;19.228;2023-04-01T19:33:34;9.80;;;4.70;;
77117;SDS011;66072;50.238;19.228;2023-04-01T19:39:23;5.00;;;2.90;;
77117;SDS011;66072;50.238;19.228;2023-04-01T19:42:00;7.10;;;4.30;;
77117;SDS011;66072;50.238;19.228;2023-04-01T19:47:08;8.40;;;4.40;;
77117;SDS011;66072;50.238;19.228;2023-04-01T19:49:57;7.40;;;4.30;;
77117;SDS011;66072;50.238;19.228;2023-04-01T19:52:40;6.60;;;3.80;;
77117;SDS011;66072;50.238;19.228;2023-04-01T20:00:42;6.50;;;3.30;;
77117;SDS011;66072;50.238;19.228;2023-04-01T20:17:11;9.50;;;6.10;;
77117;SDS011;66072;50.238;19.228;2023-04-01T20:20:03;12.60;;;7.10;;
77117;SDS011;66072;50.238;19.228;2023-04-01T20:27:51;12.50;;;8.10;;
77117;SDS011;66072;50.238;19.228;2023-04-01T20:44:27;12.10;;;6.60;;
77117;SDS011;66072;50.238;19.228;2023-04-01T20:56:12;11.60;;;7.00;;
77117;SDS011;66072;50.238;19.228;2023-04-01T21:07:42;14.90;;;7.40;;
77117;SDS011;66072;50.238;19.228;2023-04-01T21:13:24;11.50;;;7.50;;
77117;SDS011;66072;50.238;19.228;2023-04-01T21:19:12;11.00;;;5.80;;
77117;SDS011;66072;50.238;19.228;2023-04-01T21:22:56;12.00;;;6.80;;
77117;SDS011;66072;50.238;19.228;2023-04-01T21:25:17;12.70;;;8.30;;
77117;SDS011;66072;50.238;19.228;2023-04-01T21:44:03;14.30;;;8.10;;
77117;SDS011;66072;50.238;19.228;2023-04-01T22:04:08;12.40;;;8.00;;
77117;SDS011;66072;50.238;19.228;2023-04-01T22:07:07;14.70;;;8.00;;
77117;SDS011;66072;50.238;19.228;2023-04-01T22:09:56;14.50;;;8.10;;
77117;SDS011;66072;50.238;19.228;2023-04-01T22:12:42;13.70;;;8.00;;
77117;SDS011;66072;50.238;19.228;2023-04-01T22:21:07;14.30;;;8.60;;
77117;SDS011;66072;50.238;19.228;2023-04-01T22:23:20;13.90;;;8.50;;
77117;SDS011;66072;50.238;19.228;2023-04-01T22:31:21;15.20;;;9.00;;
77117;SDS011;66072;50.238;19.228;2023-04-01T22:34:07;17.90;;;10.90;;
77117;SDS011;66072;50.238;19.228;2023-04-01T22:42:41;14.30;;;8.80;;
77117;SDS011;66072;50.238;19.228;2023-04-01T22:56:40;22.00;;;12.90;;
77117;SDS011;66072;50.238;19.228;2023-04-01T23:01:55;28.00;;;13.90;;
77117;SDS011;66072;50.238;19.228;2023-04-01T23:04:37;24.10;;;13.40;;
77117;SDS011;66072;50.238;19.228;2023-04-01T23:10:25;24.00;;;14.20;;
77117;SDS011;66072;50.238;19.228;2023-04-01T23:12:58;25.00;;;12.60;;
77117;SDS011;66072;50.238;19.228;2023-04-01T23:15:28;20.20;;;12.50;;
77117;SDS011;66072;50.238;19.228;2023-04-01T23:18:01;22.00;;;12.90;;
77117;SDS011;66072;50.238;19.228;2023-04-01T23:20:50;28.00;;;13.80;;
77117;SDS011;66072;50.238;19.228;2023-04-01T23:26:15;27.40;;;14.20;;
77117;SDS011;66072;50.238;19.228;2023-04-01T23:28:51;28.70;;;14.50;;
77117;SDS011;66072;50.238;19.228;2023-04-01T23:31:31;24.20;;;14.50;;
77117;SDS011;66072;50.238;19.228;2023-04-01T23:36:46;29.60;;;15.50;;
77117;SDS011;66072;50.238;19.228;2023-04-01T23:42:06;27.60;;;15.70;;
77117;SDS011;66072;50.238;19.228;2023-04-01T23:44:40;26.70;;;14.20;;
77117;SDS011;66072;50.238;19.228;2023-04-01T23:47:12;28.50;;;14.40;;
77117;SDS011;66072;50.238;19.228;2023-04-01T23:49:53;25.00;;;13.30;;
77117;SDS011;66072;50.238;19.228;2023-04-01T23:52:36;27.50;;;13.90;;
77117;SDS011;66072;50.238;19.228;2023-04-01T23:55:19;27.00;;;13.50;;
77117;SDS011;66072;50.238;19.228;2023-04-01T23:58:27;24.40;;;13.00;;
